createdAt,value
2022-10-30T00:00:17.674Z,7.67
2022-10-30T00:02:47.650Z,10.90
2022-10-30T00:05:15.713Z,9.70
2022-10-30T00:07:43.795Z,8.27
2022-10-30T00:10:11.740Z,7.53
2022-10-30T00:12:41.111Z,10.13
2022-10-30T00:15:09.668Z,7.60
2022-10-30T00:17:37.472Z,8.17
2022-10-30T00:20:06.233Z,9.17
2022-10-30T00:22:34.107Z,9.37
2022-10-30T00:25:01.883Z,14.53
2022-10-30T00:27:29.670Z,15.20
2022-10-30T00:29:58.766Z,13.30
2022-10-30T00:32:26.647Z,11.77
2022-10-30T00:34:54.397Z,11.30
2022-10-30T00:37:22.146Z,9.03
2022-10-30T00:39:49.900Z,9.63
2022-10-30T00:42:18.379Z,8.43
2022-10-30T00:44:48.775Z,11.43
2022-10-30T00:47:21.656Z,9.90
2022-10-30T00:49:55.658Z,6.77
2022-10-30T00:52:26.740Z,4.63
2022-10-30T00:54:56.538Z,7.07
2022-10-30T00:57:25.097Z,9.07
2022-10-30T00:59:53.387Z,8.00
2022-10-30T01:02:23.534Z,12.03
2022-10-30T01:04:54.221Z,7.87
2022-10-30T01:07:22.047Z,7.27
2022-10-30T01:09:49.934Z,9.30
2022-10-30T01:12:18.981Z,7.40
2022-10-30T01:14:49.920Z,7.20
2022-10-30T01:17:42.079Z,7.03
2022-10-30T01:20:23.696Z,5.63
2022-10-30T01:23:00.942Z,7.30
2022-10-30T01:25:39.410Z,6.67
2022-10-30T01:28:19.829Z,8.23
2022-10-30T01:31:02.404Z,9.07
2022-10-30T01:33:40.119Z,10.77
2022-10-30T01:36:19.025Z,8.07
2022-10-30T01:38:51.949Z,9.43
2022-10-30T01:41:19.764Z,11.23
2022-10-30T01:43:49.738Z,5.73
2022-10-30T01:46:32.720Z,8.23
2022-10-30T01:49:16.365Z,8.17
2022-10-30T01:51:56.096Z,9.33
2022-10-30T01:54:33.735Z,7.50
2022-10-30T01:57:08.553Z,7.20
2022-10-30T01:59:39.113Z,8.93
2022-10-30T02:02:07.461Z,11.20
2022-10-30T02:04:37.490Z,5.97
2022-10-30T02:07:05.581Z,5.57
2022-10-30T02:09:33.414Z,8.07
2022-10-30T02:12:03.628Z,7.70
2022-10-30T02:14:35.646Z,7.50
2022-10-30T02:17:06.728Z,6.40
2022-10-30T02:19:35.848Z,7.33
2022-10-30T02:22:05.196Z,8.10
2022-10-30T02:24:34.709Z,7.93
2022-10-30T02:27:02.578Z,10.80
2022-10-30T02:29:30.502Z,10.90
2022-10-30T02:31:58.292Z,11.40
2022-10-30T02:34:26.118Z,12.37
2022-10-30T02:36:53.881Z,9.77
2022-10-30T02:39:23.064Z,6.83
2022-10-30T02:41:50.881Z,7.77
2022-10-30T02:44:18.627Z,6.17
2022-10-30T02:46:46.412Z,7.17
2022-10-30T02:49:14.155Z,10.33
2022-10-30T02:51:41.924Z,12.40
2022-10-30T02:54:10.744Z,8.33
2022-10-30T02:56:41.356Z,9.57
2022-10-30T02:59:09.272Z,7.87
2022-10-30T03:01:37.186Z,6.33
2022-10-30T03:04:05.423Z,13.30
2022-10-30T03:06:33.700Z,7.50
2022-10-30T03:09:01.476Z,8.30
2022-10-30T03:11:29.227Z,6.60
2022-10-30T03:13:58.398Z,12.27
2022-10-30T03:16:29.300Z,10.63
2022-10-30T03:18:57.561Z,7.53
2022-10-30T03:21:27.197Z,9.13
2022-10-30T03:23:55.815Z,7.73
2022-10-30T03:26:23.872Z,7.33
2022-10-30T03:28:51.664Z,7.23
2022-10-30T03:31:21.117Z,7.90
2022-10-30T03:33:48.895Z,9.33
2022-10-30T03:36:16.749Z,6.47
2022-10-30T03:38:44.578Z,10.87
2022-10-30T03:41:12.344Z,7.87
2022-10-30T03:43:40.112Z,10.73
2022-10-30T03:46:07.870Z,6.43
2022-10-30T03:48:36.989Z,6.20
2022-10-30T03:51:04.896Z,6.03
2022-10-30T03:53:32.647Z,5.37
2022-10-30T03:56:01.975Z,4.53
2022-10-30T03:58:30.861Z,4.70
2022-10-30T04:01:02.368Z,6.50
2022-10-30T04:03:30.447Z,9.37
2022-10-30T04:05:59.768Z,7.07
2022-10-30T04:08:27.755Z,4.47
2022-10-30T04:10:55.594Z,4.97
2022-10-30T04:13:23.389Z,8.83
2022-10-30T04:15:56.410Z,6.23
2022-10-30T04:18:25.946Z,4.17
2022-10-30T04:20:53.807Z,4.63
2022-10-30T04:23:23.614Z,5.90
2022-10-30T04:25:51.382Z,6.10
2022-10-30T04:28:21.165Z,4.57
2022-10-30T04:30:49.379Z,5.53
2022-10-30T04:33:17.632Z,6.83
2022-10-30T04:35:45.530Z,9.20
2022-10-30T04:38:14.970Z,6.77
2022-10-30T04:40:47.327Z,5.90
2022-10-30T04:43:15.878Z,6.80
2022-10-30T04:45:44.099Z,7.83
2022-10-30T04:48:14.119Z,4.40
2022-10-30T04:50:42.238Z,8.77
2022-10-30T04:53:14.044Z,5.10
2022-10-30T04:55:42.254Z,6.50
2022-10-30T04:58:12.127Z,5.47
2022-10-30T05:00:40.645Z,5.00
2022-10-30T05:03:08.389Z,6.80
2022-10-30T05:05:36.132Z,6.50
2022-10-30T05:08:03.904Z,7.27
2022-10-30T05:10:32.708Z,7.47
2022-10-30T05:13:00.914Z,7.40
2022-10-30T05:15:30.232Z,6.70
2022-10-30T05:17:58.260Z,9.97
2022-10-30T05:20:26.248Z,7.20
2022-10-30T05:22:57.646Z,5.97
2022-10-30T05:25:26.442Z,5.57
2022-10-30T05:27:59.631Z,8.03
2022-10-30T05:30:28.233Z,7.30
2022-10-30T05:33:01.056Z,6.60
2022-10-30T05:35:29.874Z,8.23
2022-10-30T05:37:57.851Z,7.03
2022-10-30T05:40:25.728Z,5.90
2022-10-30T05:42:53.817Z,5.77
2022-10-30T05:45:21.956Z,5.80
2022-10-30T05:47:56.715Z,8.17
2022-10-30T05:50:26.883Z,7.23
2022-10-30T05:52:56.888Z,5.40
2022-10-30T05:55:24.746Z,6.47
2022-10-30T05:57:57.615Z,8.33
2022-10-30T06:00:25.697Z,3.87
2022-10-30T06:02:53.574Z,4.90
2022-10-30T06:05:21.397Z,4.63
2022-10-30T06:07:50.487Z,4.67
2022-10-30T06:10:18.448Z,9.53
2022-10-30T06:12:53.689Z,5.80
2022-10-30T06:15:22.067Z,9.07
2022-10-30T06:17:50.292Z,5.23
2022-10-30T06:20:19.230Z,5.63
2022-10-30T06:22:56.627Z,10.87
2022-10-30T06:25:25.255Z,4.23
2022-10-30T06:27:53.312Z,4.40
2022-10-30T06:30:21.650Z,4.23
2022-10-30T06:32:49.693Z,4.00
2022-10-30T06:35:17.863Z,3.87
2022-10-30T06:37:48.752Z,4.20
2022-10-30T06:40:18.468Z,8.87
2022-10-30T06:42:47.431Z,5.33
2022-10-30T06:45:16.527Z,12.13
2022-10-30T06:47:44.697Z,12.87
2022-10-30T06:50:15.105Z,5.20
2022-10-30T06:52:43.247Z,7.70
2022-10-30T06:55:12.018Z,8.53
2022-10-30T06:57:41.141Z,7.10
2022-10-30T07:00:10.234Z,9.63
2022-10-30T07:02:37.988Z,6.93
2022-10-30T07:05:06.568Z,5.47
2022-10-30T07:07:34.395Z,5.70
2022-10-30T07:10:02.198Z,5.13
2022-10-30T07:12:29.966Z,7.70
2022-10-30T07:15:00.147Z,9.00
2022-10-30T07:17:27.877Z,9.40
2022-10-30T07:19:55.626Z,4.90
2022-10-30T07:22:23.389Z,5.67
2022-10-30T07:24:51.197Z,6.53
2022-10-30T07:27:18.961Z,5.37
2022-10-30T07:29:46.737Z,9.30
2022-10-30T07:32:15.896Z,4.90
2022-10-30T07:34:43.660Z,7.37
2022-10-30T07:37:11.416Z,7.70
2022-10-30T07:39:39.150Z,4.60
2022-10-30T07:42:06.987Z,5.63
2022-10-30T07:44:34.732Z,3.43
2022-10-30T07:47:02.531Z,7.43
2022-10-30T07:49:31.615Z,5.77
2022-10-30T07:51:59.982Z,7.37
2022-10-30T07:54:27.712Z,8.73
2022-10-30T07:59:25.346Z,7.17
2022-10-30T08:01:53.243Z,7.83
2022-10-30T08:04:21.181Z,4.27
2022-10-30T08:06:50.297Z,6.07
2022-10-30T08:09:18.037Z,10.10
2022-10-30T08:11:45.770Z,10.17
2022-10-30T08:14:13.503Z,9.33
2022-10-30T08:16:41.255Z,11.33
2022-10-30T08:19:09.004Z,6.37
2022-10-30T08:21:36.753Z,5.60
2022-10-30T08:24:06.343Z,3.73
2022-10-30T08:26:34.269Z,3.93
2022-10-30T08:29:02.039Z,5.17
2022-10-30T08:31:29.794Z,7.43
2022-10-30T08:33:57.550Z,6.97
2022-10-30T08:36:25.293Z,6.37
2022-10-30T08:38:53.024Z,6.33
2022-10-30T08:41:22.149Z,3.67
2022-10-30T08:43:49.880Z,7.33
2022-10-30T08:46:17.653Z,3.50
2022-10-30T08:48:45.408Z,5.77
2022-10-30T08:51:13.262Z,4.70
2022-10-30T08:53:41.033Z,2.73
2022-10-30T08:56:09.144Z,13.33
2022-10-30T08:58:38.227Z,4.70
2022-10-30T09:01:06.192Z,3.37
2022-10-30T09:03:33.979Z,4.23
2022-10-30T09:06:02.507Z,5.33
2022-10-30T09:08:30.344Z,3.13
2022-10-30T09:10:59.012Z,4.30
2022-10-30T09:13:27.100Z,5.97
2022-10-30T09:16:00.055Z,4.73
2022-10-30T09:18:27.873Z,3.70
2022-10-30T09:20:55.656Z,4.23
2022-10-30T09:23:23.494Z,6.93
2022-10-30T09:25:51.543Z,5.10
2022-10-30T09:28:19.342Z,6.80
2022-10-30T09:30:49.708Z,3.83
2022-10-30T09:33:18.796Z,5.47
2022-10-30T09:35:46.528Z,3.80
2022-10-30T09:38:14.277Z,5.03
2022-10-30T09:40:58.072Z,8.37
2022-10-30T09:43:36.529Z,4.77
2022-10-30T09:46:34.040Z,19.20
2022-10-30T09:49:16.803Z,8.17
2022-10-30T09:52:02.537Z,8.93
2022-10-30T09:54:38.386Z,5.57
2022-10-30T09:57:13.885Z,5.07
2022-10-30T09:59:52.363Z,4.80
2022-10-30T10:02:32.682Z,5.17
2022-10-30T10:05:08.184Z,7.00
2022-10-30T10:07:39.684Z,8.57
2022-10-30T10:10:14.248Z,5.90
2022-10-30T10:12:45.070Z,4.07
2022-10-30T10:15:18.735Z,5.17
2022-10-30T10:17:47.629Z,8.63
2022-10-30T10:20:33.098Z,4.40
2022-10-30T10:23:07.364Z,4.13
2022-10-30T10:25:37.046Z,5.03
2022-10-30T10:28:16.342Z,4.57
2022-10-30T10:30:55.381Z,2.80
2022-10-30T10:33:34.706Z,2.53
2022-10-30T10:36:21.251Z,5.70
2022-10-30T10:39:08.612Z,10.23
2022-10-30T10:41:56.936Z,3.07
2022-10-30T10:44:37.224Z,3.55
2022-10-30T10:47:26.750Z,4.20
2022-10-30T10:50:08.004Z,3.92
2022-10-30T10:52:41.230Z,3.67
2022-10-30T10:55:17.150Z,4.70
2022-10-30T10:57:46.043Z,6.13
2022-10-30T11:00:17.653Z,8.57
2022-10-30T11:02:52.031Z,3.67
2022-10-30T11:05:28.577Z,4.03
2022-10-30T11:08:02.052Z,6.43
2022-10-30T11:10:30.029Z,3.55
2022-10-30T11:12:58.131Z,4.38
2022-10-30T11:15:37.315Z,5.82
2022-10-30T11:18:08.047Z,7.43
2022-10-30T11:20:43.289Z,5.90
2022-10-30T11:23:35.297Z,4.40
2022-10-30T11:26:03.711Z,3.88
2022-10-30T11:28:39.945Z,6.25
2022-10-30T11:31:34.639Z,3.85
2022-10-30T11:34:29.442Z,6.47
2022-10-30T11:36:57.198Z,4.65
2022-10-30T11:39:28.019Z,2.75
2022-10-30T11:42:07.795Z,3.67
2022-10-30T11:44:38.643Z,5.43
2022-10-30T11:47:07.634Z,3.33
2022-10-30T11:49:42.100Z,5.85
2022-10-30T11:52:10.793Z,4.43
2022-10-30T11:54:45.135Z,6.00
2022-10-30T11:57:21.655Z,4.65
2022-10-30T11:59:51.720Z,4.78
2022-10-30T12:02:27.034Z,2.50
2022-10-30T12:04:56.492Z,2.55
2022-10-30T12:07:30.816Z,5.07
2022-10-30T12:10:01.735Z,4.63
2022-10-30T12:12:33.200Z,4.05
2022-10-30T12:15:11.573Z,3.60
2022-10-30T12:17:40.732Z,5.50
2022-10-30T12:20:14.817Z,4.15
2022-10-30T12:22:42.759Z,6.85
2022-10-30T12:25:24.475Z,3.90
2022-10-30T12:27:59.118Z,5.97
2022-10-30T12:30:29.137Z,5.03
2022-10-30T12:33:02.311Z,3.28
2022-10-30T12:35:42.534Z,5.13
2022-10-30T12:38:17.747Z,2.92
2022-10-30T12:40:58.080Z,6.05
2022-10-30T12:43:28.113Z,5.82
2022-10-30T12:46:00.305Z,6.13
2022-10-30T12:48:37.117Z,8.55
2022-10-30T12:51:19.761Z,7.72
2022-10-30T12:53:59.056Z,5.90
2022-10-30T12:56:32.439Z,6.22
2022-10-30T12:59:13.308Z,7.25
2022-10-30T13:01:48.732Z,3.53
2022-10-30T13:04:20.081Z,6.40
2022-10-30T13:06:51.706Z,5.82
2022-10-30T13:09:24.786Z,5.25
2022-10-30T13:12:00.290Z,4.30
2022-10-30T13:14:34.483Z,4.95
2022-10-30T13:17:02.258Z,5.47
2022-10-30T13:19:30.017Z,6.47
2022-10-30T13:22:03.320Z,3.30
2022-10-30T13:24:45.346Z,6.28
2022-10-30T13:27:19.259Z,3.55
2022-10-30T13:29:55.465Z,5.47
2022-10-30T13:32:34.558Z,5.90
2022-10-30T13:35:11.739Z,3.45
2022-10-30T13:37:42.736Z,8.13
2022-10-30T13:40:18.442Z,5.75
2022-10-30T13:42:57.768Z,6.65
2022-10-30T13:45:44.516Z,4.30
2022-10-30T13:48:19.767Z,6.50
2022-10-30T13:51:11.078Z,4.65
2022-10-30T13:53:41.783Z,6.53
2022-10-30T13:56:15.980Z,5.13
2022-10-30T13:58:51.072Z,4.70
2022-10-30T14:01:23.584Z,8.25
2022-10-30T14:04:01.048Z,5.32
2022-10-30T14:06:41.015Z,14.38
2022-10-30T14:09:20.750Z,5.70
2022-10-30T14:11:48.515Z,6.18
2022-10-30T14:14:30.858Z,4.97
2022-10-30T14:17:16.764Z,7.95
2022-10-30T14:20:22.099Z,3.60
2022-10-30T14:23:08.711Z,5.13
2022-10-30T14:25:36.936Z,6.13
2022-10-30T14:28:05.427Z,7.95
2022-10-30T14:30:36.674Z,10.02
2022-10-30T14:33:04.585Z,5.15
2022-10-30T14:35:41.089Z,6.53
2022-10-30T14:38:36.330Z,4.95
2022-10-30T14:41:18.237Z,6.75
2022-10-30T14:43:53.467Z,16.98
2022-10-30T14:46:31.309Z,7.22
2022-10-30T14:49:10.756Z,4.57
2022-10-30T14:51:45.769Z,4.18
2022-10-30T14:54:19.157Z,8.38
2022-10-30T14:56:48.104Z,4.50
2022-10-30T14:59:25.093Z,3.72
2022-10-30T15:02:02.143Z,5.28
2022-10-30T15:04:46.623Z,7.43
2022-10-30T15:07:23.814Z,4.97
2022-10-30T15:10:07.547Z,6.10
2022-10-30T15:13:02.336Z,6.43
2022-10-30T15:15:30.988Z,4.40
2022-10-30T15:18:04.439Z,7.03
2022-10-30T15:20:34.372Z,6.28
2022-10-30T15:23:05.727Z,5.45
2022-10-30T15:25:38.244Z,4.77
2022-10-30T15:28:06.844Z,6.50
2022-10-30T15:30:34.684Z,4.53
2022-10-30T15:33:03.988Z,7.10
2022-10-30T15:35:31.888Z,6.37
2022-10-30T15:38:04.772Z,10.07
2022-10-30T15:40:34.228Z,6.87
2022-10-30T15:43:05.407Z,7.53
2022-10-30T15:45:36.852Z,7.20
2022-10-30T15:48:09.896Z,5.30
2022-10-30T15:50:42.205Z,6.43
2022-10-30T15:53:18.915Z,8.33
2022-10-30T15:55:47.895Z,8.30
2022-10-30T15:58:19.604Z,7.53
2022-10-30T16:00:57.040Z,5.07
2022-10-30T16:03:27.403Z,6.67
2022-10-30T16:06:06.132Z,9.70
2022-10-30T16:08:44.411Z,6.73
2022-10-30T16:11:12.652Z,8.67
2022-10-30T16:13:40.714Z,8.77
2022-10-30T16:16:23.408Z,8.27
2022-10-30T16:18:52.950Z,9.77
2022-10-30T16:21:24.543Z,11.23
2022-10-30T16:23:54.278Z,12.20
2022-10-30T16:26:29.864Z,12.07
2022-10-30T16:28:58.467Z,6.80
2022-10-30T16:31:33.747Z,8.67
2022-10-30T16:34:04.336Z,7.10
2022-10-30T16:36:32.834Z,13.80
2022-10-30T16:39:00.923Z,10.20
2022-10-30T16:41:30.652Z,7.50
2022-10-30T16:44:20.255Z,10.63
2022-10-30T16:46:53.282Z,14.37
2022-10-30T16:49:24.684Z,10.07
2022-10-30T16:51:59.705Z,25.90
2022-10-30T16:54:31.171Z,35.83
2022-10-30T16:57:01.294Z,34.13
2022-10-30T16:59:34.018Z,34.50
2022-10-30T17:02:06.308Z,39.50
2022-10-30T17:04:36.811Z,43.33
2022-10-30T17:07:18.653Z,22.03
2022-10-30T17:09:48.488Z,16.83
2022-10-30T17:12:20.487Z,19.60
2022-10-30T17:15:04.166Z,21.93
2022-10-30T17:17:35.141Z,12.27
2022-10-30T17:20:07.895Z,8.97
2022-10-30T17:22:35.835Z,8.97
2022-10-30T17:25:17.093Z,9.13
2022-10-30T17:27:47.906Z,6.30
2022-10-30T17:30:45.780Z,6.73
2022-10-30T17:33:31.309Z,10.37
2022-10-30T17:36:00.549Z,3.67
2022-10-30T17:38:28.636Z,4.40
2022-10-30T17:40:56.459Z,3.50
2022-10-30T17:43:28.281Z,4.80
2022-10-30T17:45:56.101Z,6.47
2022-10-30T17:48:26.689Z,6.97
2022-10-30T17:50:54.615Z,7.43
2022-10-30T17:53:26.541Z,4.30
2022-10-30T17:56:00.069Z,6.50
2022-10-30T17:58:28.001Z,5.40
2022-10-30T18:00:55.778Z,5.23
2022-10-30T18:03:23.759Z,6.63
2022-10-30T18:05:52.823Z,4.63
2022-10-30T18:08:20.584Z,5.70
2022-10-30T18:10:50.502Z,4.97
2022-10-30T18:13:19.448Z,6.93
2022-10-30T18:15:52.958Z,8.23
2022-10-30T18:18:20.750Z,5.00
2022-10-30T18:20:49.164Z,4.50
2022-10-30T18:23:46.620Z,3.13
2022-10-30T18:26:14.917Z,6.70
2022-10-30T18:28:42.988Z,3.33
2022-10-30T18:31:13.484Z,5.47
2022-10-30T18:33:41.579Z,4.27
2022-10-30T18:36:13.477Z,6.07
2022-10-30T18:38:41.334Z,5.60
2022-10-30T18:41:15.278Z,7.13
2022-10-30T18:43:46.603Z,7.27
2022-10-30T18:46:16.101Z,7.23
2022-10-30T18:48:43.910Z,5.43
2022-10-30T18:51:18.269Z,8.47
2022-10-30T18:53:51.991Z,9.33
2022-10-30T18:56:22.976Z,6.07
2022-10-30T18:58:54.928Z,6.93
2022-10-30T19:01:26.736Z,8.20
2022-10-30T19:03:54.641Z,6.70
2022-10-30T19:06:24.194Z,6.27
2022-10-30T19:08:52.048Z,6.17
2022-10-30T19:11:24.893Z,4.40
2022-10-30T19:13:54.184Z,4.90
2022-10-30T19:16:24.355Z,3.63
2022-10-30T19:18:52.224Z,8.07
2022-10-30T19:21:22.167Z,6.97
2022-10-30T19:23:50.199Z,7.13
2022-10-30T19:26:18.353Z,7.17
2022-10-30T19:28:47.480Z,6.43
2022-10-30T19:31:17.719Z,4.90
2022-10-30T19:33:46.081Z,2.70
2022-10-30T19:36:27.760Z,4.27
2022-10-30T19:38:55.860Z,4.67
2022-10-30T19:41:24.669Z,3.60
2022-10-30T19:43:59.859Z,5.77
2022-10-30T19:46:27.613Z,4.60
2022-10-30T19:48:58.179Z,8.50
2022-10-30T19:51:27.026Z,4.73
2022-10-30T19:53:54.783Z,6.17
2022-10-30T19:56:23.140Z,5.10
2022-10-30T19:58:51.177Z,3.80
2022-10-30T20:01:20.491Z,4.87
2022-10-30T20:03:48.375Z,3.70
2022-10-30T20:06:16.242Z,4.60
2022-10-30T20:08:50.756Z,3.60
2022-10-30T20:11:19.811Z,4.20
2022-10-30T20:13:54.613Z,6.77
2022-10-30T20:16:23.881Z,5.37
2022-10-30T20:18:51.660Z,6.77
2022-10-30T20:21:20.610Z,7.07
2022-10-30T20:23:48.410Z,5.03
2022-10-30T20:26:24.179Z,5.87
2022-10-30T20:28:52.435Z,7.40
2022-10-30T20:31:20.237Z,6.73
2022-10-30T20:33:49.344Z,6.57
2022-10-30T20:36:17.231Z,9.00
2022-10-30T20:38:45.050Z,5.63
2022-10-30T20:41:21.814Z,6.10
2022-10-30T20:43:50.067Z,5.70
2022-10-30T20:46:18.131Z,4.60
2022-10-30T20:48:45.971Z,5.07
2022-10-30T20:51:15.537Z,5.43
2022-10-30T20:53:43.342Z,5.53
2022-10-30T20:56:11.791Z,4.13
2022-10-30T20:58:39.740Z,7.27
2022-10-30T21:01:07.845Z,5.17
2022-10-30T21:03:35.727Z,6.63
2022-10-30T21:06:03.551Z,7.53
2022-10-30T21:08:33.032Z,5.20
2022-10-30T21:11:01.592Z,6.27
2022-10-30T21:13:29.864Z,7.53
2022-10-30T21:16:02.000Z,5.60
2022-10-30T21:18:30.058Z,6.50
2022-10-30T21:21:02.082Z,5.63
2022-10-30T21:23:30.123Z,6.63
2022-10-30T21:26:02.884Z,5.93
2022-10-30T21:28:30.783Z,5.57
2022-10-30T21:31:02.161Z,4.20
2022-10-30T21:33:31.713Z,4.17
2022-10-30T21:36:10.626Z,4.17
2022-10-30T21:38:41.440Z,4.60
2022-10-30T21:41:10.784Z,6.67
2022-10-30T21:43:38.595Z,7.10
2022-10-30T21:46:08.821Z,5.17
2022-10-30T21:48:36.641Z,6.60
2022-10-30T21:51:09.184Z,5.70
2022-10-30T21:53:38.249Z,5.43
2022-10-30T21:56:07.829Z,3.13
2022-10-30T21:58:37.509Z,7.23
2022-10-30T22:01:06.488Z,6.53
2022-10-30T22:03:34.815Z,4.90
2022-10-30T22:06:07.094Z,4.83
2022-10-30T22:08:35.188Z,6.43
2022-10-30T22:11:06.744Z,5.30
2022-10-30T22:13:36.325Z,4.50
2022-10-30T22:16:05.169Z,4.80
2022-10-30T22:18:33.359Z,5.03
2022-10-30T22:21:02.176Z,5.90
2022-10-30T22:23:30.841Z,4.53
2022-10-30T22:26:00.437Z,4.70
2022-10-30T22:28:29.391Z,4.67
2022-10-30T22:31:02.667Z,13.83
2022-10-30T22:33:31.427Z,11.83
2022-10-30T22:36:03.279Z,9.73
2022-10-30T22:38:31.115Z,7.57
2022-10-30T22:41:08.786Z,9.73
2022-10-30T22:43:36.537Z,9.70
2022-10-30T22:46:05.804Z,9.27
2022-10-30T22:48:33.920Z,10.50
2022-10-30T22:51:03.638Z,8.23
2022-10-30T22:53:33.165Z,12.90
2022-10-30T22:56:01.289Z,12.10
2022-10-30T22:58:30.214Z,6.80
2022-10-30T23:01:09.421Z,8.97
2022-10-30T23:03:37.215Z,5.40
2022-10-30T23:06:05.292Z,4.07
2022-10-30T23:08:33.051Z,6.57
2022-10-30T23:11:01.062Z,6.13
2022-10-30T23:13:28.926Z,7.13
2022-10-30T23:16:01.526Z,5.70
2022-10-30T23:18:31.235Z,4.73
2022-10-30T23:21:02.198Z,4.17
2022-10-30T23:23:30.257Z,7.23
2022-10-30T23:26:03.566Z,7.53
2022-10-30T23:28:31.410Z,6.60
2022-10-30T23:30:59.200Z,5.00
2022-10-30T23:33:26.969Z,6.43
2022-10-30T23:36:00.859Z,6.10
2022-10-30T23:38:28.656Z,6.03
2022-10-30T23:40:56.682Z,7.50
2022-10-30T23:43:24.516Z,7.03
2022-10-30T23:45:52.377Z,6.53
2022-10-30T23:48:20.137Z,5.73
2022-10-30T23:50:47.911Z,6.83
2022-10-30T23:53:17.106Z,4.27
2022-10-30T23:55:51.656Z,4.73
2022-10-30T23:58:19.556Z,7.43
